createdAt,value
2023-02-19T00:01:57.235Z,75.66
2023-02-19T00:04:24.888Z,77.17
2023-02-19T00:06:52.198Z,75.51
2023-02-19T00:09:19.781Z,74.87
2023-02-19T00:11:48.042Z,73.57
2023-02-19T00:14:18.035Z,72.82
2023-02-19T00:16:46.327Z,71.91
2023-02-19T00:19:16.595Z,71.70
2023-02-19T00:21:44.126Z,72.67
2023-02-19T00:24:13.455Z,71.04
2023-02-19T00:26:42.430Z,71.24
2023-02-19T00:29:14.468Z,71.43
2023-02-19T00:31:42.413Z,70.08
2023-02-19T00:34:10.817Z,70.70
2023-02-19T00:36:40.452Z,71.43
2023-02-19T00:39:09.076Z,72.55
2023-02-19T00:41:36.369Z,73.86
2023-02-19T00:44:06.522Z,73.53
2023-02-19T00:46:36.372Z,72.88
2023-02-19T00:49:05.396Z,72.92
2023-02-19T00:51:35.913Z,73.08
2023-02-19T00:54:04.485Z,78.06
2023-02-19T00:56:31.779Z,71.99
2023-02-19T00:58:59.077Z,71.26
2023-02-19T01:01:26.775Z,71.10
2023-02-19T01:03:54.119Z,72.10
2023-02-19T01:06:21.864Z,71.34
2023-02-19T01:08:50.205Z,71.05
2023-02-19T01:11:18.687Z,70.28
2023-02-19T01:13:46.136Z,72.14
2023-02-19T01:16:19.749Z,69.23
2023-02-19T01:18:47.692Z,68.76
2023-02-19T01:21:18.414Z,68.13
2023-02-19T01:23:46.274Z,70.49
2023-02-19T01:26:17.101Z,68.49
2023-02-19T01:28:45.068Z,68.68
2023-02-19T01:31:15.575Z,68.59
2023-02-19T01:33:48.238Z,69.08
2023-02-19T01:36:16.134Z,68.22
2023-02-19T01:38:43.746Z,68.21
2023-02-19T01:41:14.334Z,68.54
2023-02-19T01:44:05.249Z,70.80
2023-02-19T01:46:34.443Z,68.47
2023-02-19T01:49:12.528Z,68.10
2023-02-19T01:51:44.966Z,68.15
2023-02-19T01:54:15.669Z,71.63
2023-02-19T01:56:46.094Z,68.82
2023-02-19T01:59:14.719Z,68.82
2023-02-19T02:01:42.209Z,69.09
2023-02-19T02:04:10.010Z,70.16
2023-02-19T02:06:49.307Z,68.50
2023-02-19T02:09:19.350Z,68.19
2023-02-19T02:11:50.038Z,71.77
2023-02-19T02:14:20.214Z,74.22
2023-02-19T02:17:12.130Z,69.67
2023-02-19T02:19:39.468Z,69.38
2023-02-19T02:22:09.547Z,72.30
2023-02-19T02:24:43.093Z,69.46
2023-02-19T02:27:13.409Z,69.38
2023-02-19T02:29:59.251Z,69.82
2023-02-19T02:32:33.622Z,73.15
2023-02-19T02:35:10.096Z,70.55
2023-02-19T02:37:42.279Z,69.81
2023-02-19T02:40:11.309Z,69.46
2023-02-19T02:42:40.376Z,73.23
2023-02-19T02:45:23.881Z,70.06
2023-02-19T02:47:53.566Z,69.13
2023-02-19T02:50:27.415Z,70.09
2023-02-19T02:53:07.481Z,72.98
2023-02-19T02:55:39.790Z,70.41
2023-02-19T02:58:08.583Z,70.45
2023-02-19T03:00:38.142Z,70.28
2023-02-19T03:03:06.430Z,74.94
2023-02-19T03:05:34.262Z,71.20
2023-02-19T03:08:22.015Z,70.54
2023-02-19T03:11:15.551Z,70.86
2023-02-19T03:13:42.979Z,76.87
2023-02-19T03:16:16.824Z,71.18
2023-02-19T03:18:46.885Z,71.20
2023-02-19T03:21:19.305Z,71.10
2023-02-19T03:23:48.118Z,72.34
2023-02-19T03:26:17.418Z,71.97
2023-02-19T03:28:47.285Z,72.54
2023-02-19T03:31:19.545Z,73.21
2023-02-19T03:33:53.532Z,77.45
2023-02-19T03:36:23.340Z,73.75
2023-02-19T03:38:56.736Z,73.06
2023-02-19T03:41:26.760Z,74.27
2023-02-19T03:44:03.095Z,76.93
2023-02-19T03:47:23.709Z,74.14
2023-02-19T03:49:51.614Z,73.85
2023-02-19T03:52:28.688Z,74.05
2023-02-19T03:55:16.690Z,75.96
2023-02-19T03:57:56.447Z,74.07
2023-02-19T04:00:38.810Z,74.10
2023-02-19T04:03:09.668Z,78.45
2023-02-19T04:05:42.585Z,75.16
2023-02-19T04:08:16.912Z,75.19
2023-02-19T04:10:46.971Z,75.21
2023-02-19T04:13:42.522Z,78.40
2023-02-19T04:16:15.521Z,76.00
2023-02-19T04:18:47.613Z,76.42
2023-02-19T04:21:16.141Z,76.33
2023-02-19T04:23:45.582Z,80.12
2023-02-19T04:26:15.133Z,75.79
2023-02-19T04:28:42.636Z,75.75
2023-02-19T04:31:11.117Z,76.30
2023-02-19T04:33:42.967Z,79.94
2023-02-19T04:36:11.038Z,77.26
2023-02-19T04:38:38.303Z,77.56
2023-02-19T04:41:06.011Z,77.28
2023-02-19T04:43:33.939Z,86.37
2023-02-19T04:46:02.456Z,78.33
2023-02-19T04:48:30.482Z,78.13
2023-02-19T04:51:00.083Z,75.33
2023-02-19T04:53:28.115Z,68.66
2023-02-19T04:55:56.181Z,68.81
2023-02-19T04:58:24.155Z,73.06
2023-02-19T05:00:53.096Z,74.47
2023-02-19T05:03:20.889Z,76.66
2023-02-19T05:05:48.988Z,77.60
2023-02-19T05:08:16.270Z,79.00
2023-02-19T05:10:43.558Z,79.39
2023-02-19T05:13:10.909Z,80.25
2023-02-19T05:15:38.401Z,80.83
2023-02-19T05:18:06.197Z,80.99
2023-02-19T05:20:33.588Z,81.46
2023-02-19T05:23:00.837Z,81.76
2023-02-19T05:25:28.138Z,80.96
2023-02-19T05:27:55.482Z,81.55
2023-02-19T05:30:22.867Z,82.02
2023-02-19T05:32:50.305Z,82.60
2023-02-19T05:35:17.738Z,82.14
2023-02-19T05:37:45.035Z,82.74
2023-02-19T05:40:12.315Z,82.66
2023-02-19T05:42:39.563Z,84.69
2023-02-19T05:45:07.842Z,87.45
2023-02-19T05:47:37.893Z,82.21
2023-02-19T05:50:05.652Z,81.15
2023-02-19T05:52:33.131Z,80.72
2023-02-19T05:55:00.464Z,80.81
2023-02-19T05:57:27.796Z,80.13
2023-02-19T05:59:56.741Z,80.45
2023-02-19T06:02:27.008Z,79.49
2023-02-19T06:04:54.386Z,78.94
2023-02-19T06:07:21.664Z,78.33
2023-02-19T06:09:50.809Z,77.09
2023-02-19T06:12:22.253Z,76.85
2023-02-19T06:14:49.692Z,75.67
2023-02-19T06:17:19.845Z,71.93
2023-02-19T06:19:47.143Z,69.69
2023-02-19T06:22:15.574Z,67.26
2023-02-19T06:24:42.947Z,66.69
2023-02-19T06:27:10.409Z,65.43
2023-02-19T06:29:37.704Z,65.73
2023-02-19T06:32:06.701Z,68.02
2023-02-19T06:34:35.141Z,69.96
2023-02-19T06:37:02.906Z,66.20
2023-02-19T06:39:30.252Z,66.96
2023-02-19T06:41:58.185Z,70.78
2023-02-19T06:44:25.574Z,71.91
2023-02-19T06:46:55.320Z,65.31
2023-02-19T06:49:25.442Z,64.28
2023-02-19T06:51:52.931Z,63.05
2023-02-19T06:54:20.177Z,60.87
2023-02-19T06:56:47.493Z,61.38
2023-02-19T06:59:16.132Z,63.13
2023-02-19T07:01:43.924Z,62.38
2023-02-19T07:04:19.391Z,68.88
2023-02-19T07:06:46.757Z,66.34
2023-02-19T07:09:14.233Z,66.57
2023-02-19T07:11:41.514Z,68.86
2023-02-19T07:14:16.132Z,74.19
2023-02-19T07:16:45.949Z,70.67
2023-02-19T07:19:14.625Z,69.95
2023-02-19T07:21:42.599Z,69.24
2023-02-19T07:24:10.201Z,66.49
2023-02-19T07:26:40.692Z,70.01
2023-02-19T07:29:11.707Z,65.68
2023-02-19T07:31:43.243Z,64.64
2023-02-19T07:34:10.597Z,65.91
2023-02-19T07:36:37.947Z,67.90
2023-02-19T07:39:05.497Z,64.16
2023-02-19T07:41:33.150Z,63.85
2023-02-19T07:44:00.576Z,63.62
2023-02-19T07:46:29.233Z,61.97
2023-02-19T07:48:57.568Z,58.52
2023-02-19T07:51:30.432Z,56.47
2023-02-19T07:54:00.741Z,57.64
2023-02-19T07:56:28.196Z,59.19
2023-02-19T07:58:59.755Z,57.75
2023-02-19T08:01:29.813Z,55.59
2023-02-19T08:03:57.861Z,56.56
2023-02-19T08:06:25.422Z,53.38
2023-02-19T08:08:52.758Z,54.22
2023-02-19T08:11:20.093Z,56.19
2023-02-19T08:13:52.073Z,61.01
2023-02-19T08:16:33.084Z,58.42
2023-02-19T08:19:07.768Z,57.20
2023-02-19T08:21:35.232Z,57.28
2023-02-19T08:24:02.623Z,62.65
2023-02-19T08:26:29.851Z,59.01
2023-02-19T08:28:57.091Z,57.75
2023-02-19T08:31:25.059Z,57.46
2023-02-19T08:33:52.798Z,62.47
2023-02-19T08:36:20.244Z,60.82
2023-02-19T08:38:47.506Z,58.63
2023-02-19T08:41:18.349Z,59.14
2023-02-19T08:43:45.639Z,58.87
2023-02-19T08:46:13.006Z,58.26
2023-02-19T08:48:40.816Z,55.63
2023-02-19T08:51:11.125Z,55.45
2023-02-19T08:53:40.342Z,54.97
2023-02-19T08:56:15.957Z,61.08
2023-02-19T08:58:43.888Z,56.02
2023-02-19T09:01:16.344Z,56.15
2023-02-19T09:03:43.952Z,54.59
2023-02-19T09:06:15.141Z,57.72
2023-02-19T09:08:42.580Z,53.82
2023-02-19T09:11:10.234Z,53.12
2023-02-19T09:13:37.780Z,53.43
2023-02-19T09:16:05.529Z,58.06
2023-02-19T09:18:33.318Z,51.79
2023-02-19T09:21:03.463Z,52.07
2023-02-19T09:23:33.222Z,51.10
2023-02-19T09:26:01.466Z,51.11
2023-02-19T09:28:28.834Z,50.18
2023-02-19T09:30:56.282Z,49.81
2023-02-19T09:33:23.650Z,50.65
2023-02-19T09:35:50.942Z,52.47
2023-02-19T09:38:18.266Z,48.80
2023-02-19T09:40:45.783Z,49.19
2023-02-19T09:43:18.704Z,50.58
2023-02-19T09:45:47.868Z,50.54
2023-02-19T09:48:15.319Z,50.68
2023-02-19T09:50:47.881Z,52.49
2023-02-19T09:53:24.430Z,52.60
2023-02-19T09:55:53.253Z,52.89
2023-02-19T09:58:32.194Z,51.01
2023-02-19T10:01:05.989Z,51.47
2023-02-19T10:03:37.852Z,51.01
2023-02-19T10:06:20.041Z,50.93
2023-02-19T10:09:25.678Z,51.38
2023-02-19T10:11:54.890Z,51.69
2023-02-19T10:14:34.028Z,52.68
2023-02-19T10:17:05.106Z,50.75
2023-02-19T10:19:34.285Z,50.68
2023-02-19T10:22:04.124Z,51.09
2023-02-19T10:24:31.902Z,55.26
2023-02-19T10:26:59.204Z,51.35
2023-02-19T10:29:26.603Z,51.16
2023-02-19T10:32:16.208Z,50.53
2023-02-19T10:34:43.618Z,51.31
2023-02-19T10:37:15.691Z,50.46
2023-02-19T10:39:50.809Z,50.20
2023-02-19T10:42:23.286Z,50.46
2023-02-19T10:45:01.288Z,53.43
2023-02-19T10:47:31.778Z,49.65
2023-02-19T10:50:02.137Z,49.53
2023-02-19T10:52:34.448Z,50.13
2023-02-19T10:55:27.320Z,52.44
2023-02-19T10:57:55.572Z,49.09
2023-02-19T11:00:26.222Z,48.86
2023-02-19T11:03:14.030Z,50.01
2023-02-19T11:06:00.663Z,49.97
2023-02-19T11:08:28.528Z,49.32
2023-02-19T11:10:56.499Z,50.02
2023-02-19T11:13:31.410Z,49.93
2023-02-19T11:16:00.032Z,51.87
2023-02-19T11:18:36.729Z,47.57
2023-02-19T11:21:06.373Z,48.76
2023-02-19T11:23:44.594Z,49.01
2023-02-19T11:26:25.526Z,50.25
2023-02-19T11:29:01.194Z,48.68
2023-02-19T11:31:30.825Z,49.32
2023-02-19T11:34:00.801Z,49.63
2023-02-19T11:36:31.017Z,54.85
2023-02-19T11:39:18.387Z,49.00
2023-02-19T11:42:23.867Z,49.83
2023-02-19T11:44:59.924Z,49.17
2023-02-19T11:47:51.514Z,50.34
2023-02-19T11:50:24.971Z,49.37
2023-02-19T11:53:17.267Z,49.16
2023-02-19T11:56:07.770Z,50.24
2023-02-19T11:59:04.873Z,50.11
2023-02-19T12:01:58.475Z,52.76
2023-02-19T12:04:50.247Z,54.04
2023-02-19T12:07:54.949Z,58.28
2023-02-19T12:10:33.782Z,52.34
2023-02-19T12:13:31.553Z,52.18
2023-02-19T12:16:07.949Z,55.17
2023-02-19T12:18:44.376Z,52.99
2023-02-19T12:21:51.781Z,53.41
2023-02-19T12:24:58.496Z,53.25
2023-02-19T12:28:16.759Z,51.28
2023-02-19T12:31:07.337Z,54.82
2023-02-19T12:33:52.498Z,50.76
2023-02-19T12:36:53.399Z,52.88
2023-02-19T12:39:23.233Z,50.12
2023-02-19T12:42:23.373Z,50.36
2023-02-19T12:45:07.211Z,50.97
2023-02-19T12:47:42.425Z,50.14
2023-02-19T12:50:24.945Z,50.54
2023-02-19T12:53:33.946Z,49.86
2023-02-19T12:56:08.636Z,50.83
2023-02-19T12:58:43.925Z,51.05
2023-02-19T13:01:18.928Z,52.00
2023-02-19T13:03:53.895Z,52.22
2023-02-19T13:06:43.009Z,53.44
2023-02-19T13:09:23.476Z,53.00
2023-02-19T13:11:56.229Z,53.29
2023-02-19T13:14:47.094Z,53.21
2023-02-19T13:17:43.867Z,54.29
2023-02-19T13:20:32.755Z,53.35
2023-02-19T13:23:14.024Z,53.80
2023-02-19T13:25:57.277Z,54.33
2023-02-19T13:28:52.820Z,54.05
2023-02-19T13:31:38.252Z,54.36
2023-02-19T13:34:42.170Z,54.42
2023-02-19T13:37:16.883Z,55.32
2023-02-19T13:39:51.070Z,54.81
2023-02-19T13:42:26.013Z,54.85
2023-02-19T13:44:57.949Z,55.09
2023-02-19T13:48:07.853Z,55.54
2023-02-19T13:50:35.125Z,54.52
2023-02-19T13:53:40.669Z,55.24
2023-02-19T13:56:32.512Z,58.84
2023-02-19T13:59:23.944Z,55.46
2023-02-19T14:01:54.381Z,55.46
2023-02-19T14:04:42.621Z,55.89
2023-02-19T14:07:49.821Z,56.31
2023-02-19T14:10:56.421Z,56.41
2023-02-19T14:13:56.530Z,56.16
2023-02-19T14:16:35.197Z,56.99
2023-02-19T14:19:02.550Z,56.44
2023-02-19T14:21:38.260Z,56.14
2023-02-19T14:24:12.027Z,56.42
2023-02-19T14:26:49.435Z,57.32
2023-02-19T14:29:17.440Z,56.52
2023-02-19T14:31:46.732Z,56.82
2023-02-19T14:34:18.036Z,57.05
2023-02-19T14:37:06.121Z,62.14
2023-02-19T14:39:36.787Z,57.09
2023-02-19T14:42:15.141Z,57.41
2023-02-19T14:44:55.485Z,57.61
2023-02-19T14:47:30.184Z,59.15
2023-02-19T14:50:17.617Z,58.12
2023-02-19T14:52:49.692Z,57.94
2023-02-19T14:55:37.866Z,57.63
2023-02-19T14:58:12.024Z,60.94
2023-02-19T15:00:42.143Z,56.56
2023-02-19T15:03:31.290Z,56.21
2023-02-19T15:06:06.019Z,55.88
2023-02-19T15:08:39.688Z,58.37
2023-02-19T15:11:18.945Z,56.43
2023-02-19T15:14:00.866Z,56.78
2023-02-19T15:16:30.358Z,56.42
2023-02-19T15:18:59.872Z,57.06
2023-02-19T15:21:30.274Z,57.20
2023-02-19T15:24:00.761Z,57.06
2023-02-19T15:26:37.105Z,57.49
2023-02-19T15:29:16.097Z,57.63
2023-02-19T15:31:49.293Z,57.62
2023-02-19T15:34:22.111Z,58.00
2023-02-19T15:36:52.839Z,63.51
2023-02-19T15:39:24.292Z,58.08
2023-02-19T15:41:55.331Z,64.53
2023-02-19T15:44:22.533Z,57.86
2023-02-19T15:46:57.620Z,63.79
2023-02-19T15:49:33.714Z,58.10
2023-02-19T15:52:07.912Z,58.33
2023-02-19T15:54:57.260Z,58.55
2023-02-19T15:57:34.906Z,61.15
2023-02-19T16:00:23.311Z,58.73
2023-02-19T16:02:50.823Z,58.51
2023-02-19T16:05:27.107Z,58.56
2023-02-19T16:08:25.852Z,59.49
2023-02-19T16:10:59.303Z,58.40
2023-02-19T16:13:28.917Z,59.43
2023-02-19T16:16:09.680Z,59.50
2023-02-19T16:18:49.500Z,59.50
2023-02-19T16:21:21.826Z,59.80
2023-02-19T16:24:09.431Z,59.98
2023-02-19T16:26:42.144Z,60.21
2023-02-19T16:29:24.041Z,60.29
2023-02-19T16:31:55.696Z,59.97
2023-02-19T16:34:46.365Z,60.72
2023-02-19T16:37:38.410Z,65.80
2023-02-19T16:40:49.974Z,59.96
2023-02-19T16:43:36.335Z,59.81
2023-02-19T16:46:11.678Z,59.43
2023-02-19T16:48:39.288Z,66.30
2023-02-19T16:51:09.134Z,59.02
2023-02-19T16:53:38.805Z,59.14
2023-02-19T16:56:13.501Z,58.97
2023-02-19T16:58:40.978Z,62.77
2023-02-19T17:01:08.663Z,59.42
2023-02-19T17:03:38.943Z,59.66
2023-02-19T17:06:09.018Z,58.97
2023-02-19T17:08:42.088Z,59.76
2023-02-19T17:11:23.104Z,58.83
2023-02-19T17:13:51.525Z,59.24
2023-02-19T17:16:23.443Z,59.59
2023-02-19T17:18:57.855Z,60.87
2023-02-19T17:21:34.747Z,59.63
2023-02-19T17:24:01.998Z,59.79
2023-02-19T17:26:37.607Z,59.82
2023-02-19T17:29:14.664Z,61.09
2023-02-19T17:31:42.062Z,60.14
2023-02-19T17:34:16.866Z,60.35
2023-02-19T17:36:48.161Z,60.34
2023-02-19T17:39:16.149Z,62.17
2023-02-19T17:41:49.636Z,60.27
2023-02-19T17:44:19.748Z,60.51
2023-02-19T17:46:47.726Z,60.38
2023-02-19T17:49:15.106Z,61.11
2023-02-19T17:51:42.542Z,60.91
2023-02-19T17:54:10.002Z,61.48
2023-02-19T17:56:37.328Z,61.70
2023-02-19T17:59:04.705Z,64.37
2023-02-19T18:01:31.991Z,61.11
2023-02-19T18:03:59.546Z,61.02
2023-02-19T18:06:27.075Z,61.21
2023-02-19T18:08:54.426Z,64.43
2023-02-19T18:11:22.717Z,61.61
2023-02-19T18:13:51.796Z,61.67
2023-02-19T18:16:21.730Z,61.52
2023-02-19T18:18:49.995Z,62.88
2023-02-19T18:21:18.323Z,62.60
2023-02-19T18:23:47.390Z,62.98
2023-02-19T18:26:23.982Z,62.86
2023-02-19T18:28:51.305Z,64.87
2023-02-19T18:31:18.727Z,63.45
2023-02-19T18:33:46.087Z,63.81
2023-02-19T18:36:13.361Z,64.46
2023-02-19T18:38:40.632Z,72.93
2023-02-19T18:41:11.908Z,64.45
2023-02-19T18:43:41.417Z,64.59
2023-02-19T18:46:10.067Z,64.15
2023-02-19T18:48:37.846Z,63.92
2023-02-19T18:51:08.887Z,64.15
2023-02-19T18:53:36.496Z,64.48
2023-02-19T18:56:04.181Z,64.41
2023-02-19T18:58:31.741Z,66.30
2023-02-19T19:01:01.303Z,64.30
2023-02-19T19:03:30.271Z,64.31
2023-02-19T19:05:57.767Z,64.27
2023-02-19T19:08:30.389Z,65.73
2023-02-19T19:10:58.288Z,63.44
2023-02-19T19:13:28.110Z,64.03
2023-02-19T19:15:55.372Z,64.48
2023-02-19T19:18:22.905Z,67.54
2023-02-19T19:20:50.215Z,64.86
2023-02-19T19:23:17.522Z,64.49
2023-02-19T19:25:44.749Z,65.33
2023-02-19T19:28:11.957Z,67.29
2023-02-19T19:30:41.927Z,65.36
2023-02-19T19:33:09.381Z,65.79
2023-02-19T19:35:36.693Z,65.80
2023-02-19T19:38:04.285Z,67.78
2023-02-19T19:40:31.562Z,65.90
2023-02-19T19:42:58.803Z,67.36
2023-02-19T19:45:26.434Z,67.10
2023-02-19T19:47:53.729Z,66.96
2023-02-19T19:50:21.111Z,67.16
2023-02-19T19:52:48.532Z,71.00
2023-02-19T19:55:15.867Z,72.77
2023-02-19T19:57:43.173Z,67.51
2023-02-19T20:00:14.696Z,67.37
2023-02-19T20:02:42.010Z,67.08
2023-02-19T20:05:09.621Z,67.23
2023-02-19T20:07:36.858Z,67.67
2023-02-19T20:10:04.888Z,68.74
2023-02-19T20:12:32.578Z,67.32
2023-02-19T20:14:59.953Z,67.27
2023-02-19T20:17:27.277Z,68.11
2023-02-19T20:19:54.698Z,69.93
2023-02-19T20:22:21.913Z,68.30
2023-02-19T20:24:53.224Z,68.38
2023-02-19T20:27:22.941Z,69.01
2023-02-19T20:29:51.382Z,74.02
2023-02-19T20:32:18.705Z,69.75
2023-02-19T20:34:46.673Z,70.26
2023-02-19T20:37:14.691Z,70.96
2023-02-19T20:39:42.101Z,70.78
2023-02-19T20:42:09.374Z,70.62
2023-02-19T20:44:36.687Z,70.98
2023-02-19T20:47:04.453Z,71.24
2023-02-19T20:49:33.879Z,71.36
2023-02-19T20:52:05.182Z,70.50
2023-02-19T20:54:33.068Z,70.71
2023-02-19T20:57:02.369Z,71.79
2023-02-19T20:59:31.578Z,71.88
2023-02-19T21:01:59.112Z,70.96
2023-02-19T21:04:26.950Z,71.83
2023-02-19T21:06:58.411Z,71.56
2023-02-19T21:09:26.645Z,72.76
2023-02-19T21:11:54.007Z,71.84
2023-02-19T21:14:21.560Z,77.44
2023-02-19T21:16:49.674Z,74.75
2023-02-19T21:19:17.009Z,75.64
2023-02-19T21:21:50.095Z,72.49
2023-02-19T21:24:17.770Z,73.18
2023-02-19T21:26:45.437Z,72.58
2023-02-19T21:29:21.122Z,73.67
2023-02-19T21:31:51.774Z,74.17
2023-02-19T21:34:24.394Z,74.63
2023-02-19T21:36:52.557Z,73.97
2023-02-19T21:39:22.963Z,76.86
2023-02-19T21:41:50.854Z,75.41
2023-02-19T21:44:19.095Z,75.26
2023-02-19T21:46:47.135Z,75.94
2023-02-19T21:49:14.658Z,75.51
2023-02-19T21:51:44.232Z,75.75
2023-02-19T21:54:17.673Z,75.68
2023-02-19T21:56:45.238Z,75.79
2023-02-19T21:59:12.873Z,83.79
2023-02-19T22:01:40.774Z,75.15
2023-02-19T22:04:09.957Z,74.87
2023-02-19T22:06:37.239Z,74.27
2023-02-19T22:09:04.704Z,75.41
2023-02-19T22:11:32.018Z,74.87
2023-02-19T22:14:00.361Z,75.21
2023-02-19T22:16:28.072Z,74.80
2023-02-19T22:18:57.621Z,80.30
2023-02-19T22:21:30.186Z,75.71
2023-02-19T22:23:58.323Z,75.80
2023-02-19T22:26:30.703Z,76.31
2023-02-19T22:28:58.860Z,78.99
2023-02-19T22:31:27.616Z,76.36
2023-02-19T22:33:56.435Z,76.45
2023-02-19T22:36:28.945Z,77.13
2023-02-19T22:38:56.786Z,81.22
2023-02-19T22:41:24.021Z,76.51
2023-02-19T22:43:55.064Z,75.83
2023-02-19T22:46:24.529Z,76.26
2023-02-19T22:48:51.842Z,84.53
2023-02-19T22:51:22.066Z,77.06
2023-02-19T22:53:52.344Z,77.06
2023-02-19T22:56:21.697Z,76.54
2023-02-19T22:58:49.507Z,76.39
2023-02-19T23:01:17.392Z,77.35
2023-02-19T23:03:50.315Z,77.75
2023-02-19T23:06:22.520Z,77.69
2023-02-19T23:08:50.045Z,82.26
2023-02-19T23:11:22.485Z,77.78
2023-02-19T23:13:49.907Z,77.38
2023-02-19T23:16:18.073Z,77.63
2023-02-19T23:18:47.836Z,81.33
2023-02-19T23:21:16.407Z,78.24
2023-02-19T23:23:45.686Z,77.76
2023-02-19T23:26:15.558Z,78.80
2023-02-19T23:28:44.437Z,85.95
2023-02-19T23:31:12.762Z,78.75
2023-02-19T23:33:40.353Z,78.86
2023-02-19T23:36:08.431Z,78.43
2023-02-19T23:38:36.616Z,81.18
2023-02-19T23:41:04.400Z,79.94
2023-02-19T23:43:31.656Z,80.11
2023-02-19T23:45:59.037Z,80.88
2023-02-19T23:48:26.317Z,80.79
2023-02-19T23:50:53.809Z,80.88
2023-02-19T23:53:21.163Z,81.47
2023-02-19T23:55:49.208Z,81.85
2023-02-19T23:58:16.656Z,81.21
